KFLL/FLL METAR and TAF weather

Enter ICAO airport designator
Station Type Date Time Source
KFLL METAR 2019/04/18 21:53 UTC NOAA

KFLL 182153Z 13014G19KT 10SM FEW024 SCT060 BKN100 28/22 A2994 RMK AO2 SLP139 T02830217


Station Type Date Time Source
KFLL Decoded METAR 2019/04/18 21:53 UTC NOAA

FORT LAUDERDALE/HOLLYWOOD, FL, United States (KFLL) 26-04N 080-09W 30M
Apr 18, 2019 - 05:53 PM EDT / 2019.04.18 2153 UTC
Wind: from the SE (130 degrees) at 16 MPH (14 KT) gusting to 22 MPH (19 KT):0
Visibility: 10 mile(s):0
Sky conditions: mostly cloudy
Temperature: 82.9 F (28.3 C)
Dew Point: 71.1 F (21.7 C)
Relative Humidity: 67%
Pressure (altimeter): 29.94 in. Hg (1013 hPa)
ob: KFLL 182153Z 13014G19KT 10SM FEW024 SCT060 BKN100 28/22 A2994 RMK AO2 SLP139 T02830217
cycle: 22

Station Type Date Time Source
KFLL TAF 2019/04/18 21:27 UTC NOAA

TAF
AMD KFLL 182121Z 1821/1924 14012KT P6SM SCT030 BKN060 BKN250
FM191400 16015G25KT P6SM SCT030 BKN050 BKN250
FM191700 19020G30KT P6SM SCT030 BKN050
FM192100 19020G30KT P6SM SCT025 BKN040 PROB30 1921/1924 6SM TSRA BKN030CB

Example: see airport list